Latest Weather Observations for Loxton

IDS60801

Issued at 4:31 pm CST Friday 6 May 2016 (issued every 30 minutes, with the page automatically refreshed every 10 minutes)

About weather observations | Map of weather stations | Latest weather observations for SA | Other Formats
Station Details ID: 024024 Name: LOXTON RESEARCH CENTRE Lat: -34.44 Lon: 140.60 Height: 30.1 m
Data from the previous 72 hours. | See also: Recent months at Loxton
Date/Time
CST
Temp
°C
App
Temp
°C
Dew
Point
Rel
Hum
%
Delta-T
°C
Wind Press
QNH
hPa
Press
MSL
hPa
Rain
since 9 am
mm
Dir
 
Spd
km/h
Gust
km/h
Spd
kts
Gust
kts
06/04:30pm 27.4 24.6 5.3 24 11.4 NE 9 11 5 6 1012.3 1012.3 0.0
06/04:00pm 28.0 24.9 3.8 21 12.2 NNE 9 15 5 8 1012.4 1012.4 0.0
06/03:30pm 28.2 25.6 4.2 21 12.2 N 7 11 4 6 1012.6 1012.7 0.0
06/03:00pm 28.2 24.7 3.5 20 12.4 NNW 11 17 6 9 1012.6 1012.7 0.0
06/02:30pm 28.0 24.1 3.4 20 12.3 NNW 13 19 7 10 1012.8 1012.8 0.0
06/02:00pm 27.6 23.8 4.0 22 11.9 NW 13 24 7 13 1013.1 1013.1 0.0
06/01:30pm 27.7 23.5 3.9 21 12.0 NW 15 24 8 13 1013.6 1013.6 0.0
06/01:00pm 26.6 23.6 4.1 23 11.3 NW 9 17 5 9 1014.1 1014.1 0.0
06/12:30pm 26.4 23.2 5.0 25 10.9 NW 11 19 6 10 1014.5 1014.5 0.0
06/12:00pm 25.7 22.3 5.9 28 10.2 NNW 13 17 7 9 1015.0 1015.0 0.0
06/11:30am 25.5 22.4 5.6 28 10.2 NW 11 17 6 9 1015.4 1015.4 0.0
06/11:00am 24.5 21.7 5.3 29 9.7 NW 9 15 5 8 1015.8 1015.8 0.0
06/10:30am 23.2 20.7 6.7 34 8.5 NNW 9 13 5 7 1016.0 1016.0 0.0
06/10:00am 21.6 19.4 6.4 37 7.7 NW 7 11 4 6 1016.3 1016.3 0.0
06/09:30am 19.6 17.5 6.7 43 6.5 NW 7 9 4 5 1016.5 1016.5 0.0
06/09:00am 17.8 15.3 6.7 48 5.5 NW 9 13 5 7 1016.6 1016.6 0.0
06/08:30am 16.0 14.0 6.9 54 4.5 WNW 7 11 4 6 1016.3 1016.3 0.0
06/08:00am 14.3 12.4 6.7 60 3.7 WNW 6 9 3 5 1015.9 1015.9 0.0
06/07:30am 9.7 7.8 6.7 81 1.4 N 6 7 3 4 1015.4 1015.4 0.0
06/07:00am 8.4 6.3 6.0 85 1.1 N 6 7 3 4 1015.1 1015.1 0.0
06/06:30am 7.0 4.6 5.4 89 0.7 NNW 7 9 4 5 1014.9 1014.9 0.0
06/06:00am 7.0 4.6 5.2 88 0.8 N 7 9 4 5 1014.6 1014.6 0.0
06/05:30am 7.1 4.8 5.5 89 0.7 N 7 9 4 5 1014.5 1014.5 0.0
06/05:00am 7.6 6.7 6.1 90 0.7 CALM 0 0 0 0 1014.2 1014.2 0.0
06/04:30am 7.7 6.8 6.2 90 0.7 CALM 0 0 0 0 1014.1 1014.1 0.0
06/04:00am 8.1 7.3 6.4 89 0.8 CALM 0 0 0 0 1013.9 1013.9 0.0
06/03:30am 8.6 7.8 6.7 88 0.9 CALM 0 0 0 0 1014.0 1014.0 0.0
06/03:00am 10.4 9.0 7.3 81 1.5 N 4 6 2 3 1014.0 1014.0 0.0
06/02:30am 15.0 12.9 6.6 57 4.1 NNW 7 11 4 6 1014.0 1014.0 0.0
06/02:00am 13.6 11.1 6.5 62 3.4 N 9 15 5 8 1014.0 1014.0 0.0
06/01:30am 8.3 6.1 6.3 87 0.9 NNW 7 9 4 5 1014.0 1014.0 0.0
06/01:00am 8.8 7.3 6.9 88 0.9 N 4 6 2 3 1013.8 1013.8 0.0
06/12:30am 9.0 6.5 6.4 84 1.2 N 9 9 5 5 1013.6 1013.6 0.0
06/12:00am 8.9 7.0 6.8 87 1.0 N 6 9 3 5 1013.6 1013.6 0.0
 
Date/Time
CST
Temp
°C
App
Temp
°C
Dew
Point
Rel
Hum
%
Delta-T
°C
Wind Press
QNH
hPa
Press
MSL
hPa
Rain
since 9 am
mm
Dir
 
Spd
km/h
Gust
km/h
Spd
kts
Gust
kts
05/11:30pm 9.2 8.6 7.3 88 0.9 CALM 0 0 0 0 1013.7 1013.7 0.0
05/11:00pm 9.6 8.9 7.1 84 1.2 CALM 0 0 0 0 1013.9 1013.9 0.0
05/10:30pm 10.0 9.3 7.0 81 1.4 CALM 0 0 0 0 1014.2 1014.2 0.0
05/10:00pm 10.5 10.0 8.0 84 1.2 CALM 0 0 0 0 1014.2 1014.2 0.0
05/09:30pm 10.5 9.9 7.6 82 1.4 CALM 0 0 0 0 1014.1 1014.1 0.0
05/09:00pm 11.3 10.8 8.0 80 1.6 CALM 0 0 0 0 1014.1 1014.1 0.0
05/08:30pm 11.7 9.5 7.8 77 1.9 NNW 9 11 5 6 1014.1 1014.1 0.0
05/08:00pm 12.6 12.3 8.6 76 2.0 CALM 0 0 0 0 1014.0 1014.0 0.0
05/07:30pm 13.5 13.4 9.4 76 2.1 CALM 0 0 0 0 1013.8 1013.8 0.0
05/07:00pm 13.9 13.8 9.6 75 2.2 CALM 0 0 0 0 1013.5 1013.5 0.0
05/06:30pm 14.4 14.3 9.5 72 2.5 CALM 0 0 0 0 1013.4 1013.4 0.0
05/06:00pm 16.4 16.5 10.1 66 3.3 CALM 0 0 0 0 1013.1 1013.1 0.0
05/05:30pm 19.5 18.8 10.2 55 5.0 N 4 6 2 3 1012.8 1012.8 0.0
05/05:00pm 23.6 21.0 6.2 32 8.9 NNW 9 15 5 8 1012.6 1012.7 0.0
05/04:30pm 24.4 21.7 5.5 29 9.6 NNW 9 15 5 8 1012.5 1012.5 0.0
05/04:00pm 24.4 21.0 5.8 30 9.5 NNW 13 19 7 10 1012.6 1012.7 0.0
05/03:30pm 24.9 21.3 5.1 28 10.0 NNW 13 22 7 12 1012.8 1012.8 0.0
05/03:00pm 24.7 20.4 5.1 28 9.9 NW 17 26 9 14 1013.0 1013.0 0.0
05/02:30pm 24.5 20.8 6.3 31 9.4 NW 15 20 8 11 1013.1 1013.1 0.0
05/02:00pm 24.3 20.6 6.5 32 9.2 NNW 15 28 8 15 1013.3 1013.3 0.0
05/01:30pm 24.9 21.0 7.2 32 9.3 NW 17 26 9 14 1013.5 1013.5 0.0
05/01:00pm 23.8 20.3 7.4 35 8.6 NNW 15 26 8 14 1014.0 1014.0 0.0
05/12:30pm 23.6 19.9 7.9 36 8.3 NNW 17 22 9 12 1014.7 1014.7 0.0
05/12:00pm 22.5 18.4 7.8 38 7.7 NNW 19 28 10 15 1015.2 1015.2 0.0
05/11:30am 22.3 18.6 8.0 40 7.5 N 17 24 9 13 1015.9 1015.9 0.0
05/11:00am 21.4 17.5 8.5 43 6.8 NNW 19 26 10 14 1016.3 1016.3 0.0
05/10:30am 20.4 17.7 8.8 47 6.1 NNW 13 26 7 14 1016.7 1016.7 0.0
05/10:00am 19.0 16.3 8.8 51 5.3 NNW 13 17 7 9 1017.1 1017.1 0.0
05/09:30am 16.9 14.0 8.3 57 4.4 NNW 13 19 7 10 1017.4 1017.4 0.0
05/09:00am 15.5 12.9 7.9 60 3.8 NNW 11 17 6 9 1017.5 1017.5 0.2
05/08:30am 13.9 11.8 8.1 68 2.9 N 9 13 5 7 1017.6 1017.6 0.2
05/08:00am 11.5 9.9 8.0 79 1.7 N 6 11 3 6 1017.6 1017.6 0.2
05/07:30am 7.4 6.5 6.1 91 0.6 CALM 0 0 0 0 1017.5 1017.5 0.2
05/07:00am 5.6 4.4 4.7 94 0.4 CALM 0 0 0 0 1017.2 1017.2 0.2
05/06:30am 5.7 4.5 4.8 94 0.4 CALM 0 0 0 0 1017.0 1017.0 0.2
05/06:00am 5.9 4.1 5.2 95 0.3 N 4 7 2 4 1016.8 1016.8 0.2
05/05:30am 6.1 5.0 5.2 94 0.4 CALM 0 0 0 0 1016.8 1016.8 0.2
05/05:00am 6.3 5.3 5.4 94 0.4 CALM 0 0 0 0 1016.6 1016.6 0.2
05/04:30am 6.9 5.6 6.0 94 0.4 N 2 6 1 3 1016.5 1016.5 0.2
05/04:00am 6.6 5.6 5.7 94 0.4 CALM 0 0 0 0 1016.4 1016.4 0.2
05/03:30am 7.0 6.2 6.3 95 0.3 CALM 0 0 0 0 1016.5 1016.5 0.2
05/03:00am 7.3 6.4 6.2 93 0.5 CALM 0 0 0 0 1016.7 1016.7 0.2
05/02:30am 7.6 5.7 6.7 94 0.4 N 6 9 3 5 1016.9 1016.9 0.2
05/02:00am 7.9 6.8 7.0 94 0.4 N 2 7 1 4 1017.0 1017.0 0.2
05/01:30am 8.0 7.3 6.9 93 0.5 CALM 0 0 0 0 1017.0 1017.0 0.2
05/01:00am 8.3 7.7 7.2 93 0.5 CALM 0 0 0 0 1017.1 1017.1 0.2
05/12:30am 8.4 7.8 7.3 93 0.5 CALM 0 0 0 0 1017.2 1017.2 0.2
05/12:00am 8.7 8.1 7.4 91 0.6 CALM 0 0 0 0 1017.3 1017.3 0.2
 
Date/Time
CST
Temp
°C
App
Temp
°C
Dew
Point
Rel
Hum
%
Delta-T
°C
Wind Press
QNH
hPa
Press
MSL
hPa
Rain
since 9 am
mm
Dir
 
Spd
km/h
Gust
km/h
Spd
kts
Gust
kts
04/11:30pm 9.5 9.1 8.3 92 0.6 CALM 0 0 0 0 1017.5 1017.5 0.2
04/11:00pm 10.7 9.3 9.5 92 0.6 NW 7 11 4 6 1017.7 1017.7 0.2
04/10:30pm 10.3 9.6 8.7 90 0.8 NNW 2 7 1 4 1017.8 1017.8 0.2
04/10:00pm 11.0 10.9 9.6 91 0.7 CALM 0 0 0 0 1017.9 1017.9 0.2
04/09:30pm 12.1 12.4 10.8 92 0.7 CALM 0 0 0 0 1017.8 1017.8 0.2
04/09:00pm 13.0 13.3 10.9 87 1.1 CALM 0 0 0 0 1017.6 1017.6 0.2
04/08:30pm 14.9 15.6 12.3 84 1.4 CALM 0 0 0 0 1017.4 1017.4 0.2
04/08:00pm 15.7 16.3 12.0 78 2.0 CALM 0 0 0 0 1017.4 1017.4 0.2
04/07:30pm 16.1 15.6 12.1 77 2.2 N 6 7 3 4 1017.3 1017.3 0.2
04/07:00pm 16.8 15.9 10.6 67 3.3 N 6 7 3 4 1017.2 1017.2 0.2
04/06:30pm 17.5 16.1 9.5 59 4.2 NNW 7 9 4 5 1016.8 1016.8 0.2
04/06:00pm 17.8 16.2 8.9 56 4.6 NNW 7 11 4 6 1016.5 1016.5 0.2
04/05:30pm 18.0 16.0 8.7 54 4.8 NNW 9 15 5 8 1016.2 1016.2 0.2
04/05:00pm 18.2 16.2 8.5 53 5.0 NNW 9 15 5 8 1016.2 1016.2 0.2
04/04:30pm 18.6 16.1 8.1 50 5.4 NW 11 15 6 8 1016.1 1016.1 0.2
04/04:00pm 18.6 15.6 7.8 49 5.5 NW 13 20 7 11 1016.0 1016.0 0.2
04/03:30pm 18.7 15.3 7.5 48 5.7 NW 15 20 8 11 1016.0 1016.0 0.2
04/03:00pm 18.6 16.4 7.8 49 5.5 NW 9 15 5 8 1016.0 1016.0 0.2
04/02:30pm 18.8 15.0 7.6 48 5.7 WNW 17 22 9 12 1016.0 1016.0 0.2
04/02:00pm 18.7 15.3 7.5 48 5.7 W 15 20 8 11 1016.1 1016.1 0.2
04/01:30pm 18.2 15.3 8.0 51 5.2 NW 13 20 7 11 1016.4 1016.4 0.0
04/01:00pm 18.1 15.6 8.4 53 5.0 WNW 11 17 6 9 1016.6 1016.6 0.0
04/12:30pm 17.7 15.3 8.6 55 4.7 NW 11 17 6 9 1017.0 1017.0 0.0
04/12:00pm 17.5 14.3 8.5 55 4.6 NW 15 20 8 11 1017.4 1017.4 0.0
04/11:30am 17.9 15.2 8.8 55 4.7 W 13 17 7 9 1017.7 1017.7 0.0
04/11:00am 17.1 14.5 9.2 59 4.1 NW 13 20 7 11 1018.0 1018.0 0.0
04/10:30am 16.3 13.9 10.0 66 3.3 WNW 13 19 7 10 1018.3 1018.3 0.0
04/10:00am 16.2 13.9 10.5 69 3.0 NW 13 19 7 10 1018.2 1018.2 0.0
04/09:30am 15.7 13.7 11.4 75 2.3 NW 13 17 7 9 1018.1 1018.1 0.0
04/09:00am 15.1 13.1 11.4 78 2.0 WNW 13 17 7 9 1017.9 1017.9 1.0
04/08:30am 14.3 12.7 11.5 83 1.5 NNW 11 15 6 8 1017.8 1017.8 1.0
04/08:00am 13.6 12.3 11.3 86 1.2 NNW 9 13 5 7 1017.5 1017.5 1.0
04/07:30am 12.4 11.1 11.1 92 0.7 N 9 11 5 6 1017.1 1017.1 1.0
04/07:00am 11.9 10.9 10.9 94 0.5 N 7 9 4 5 1016.5 1016.5 1.0
04/06:30am 12.0 11.2 11.0 94 0.5 NNW 6 7 3 4 1016.1 1016.1 1.0
04/06:00am 12.1 10.7 10.9 92 0.6 NNW 9 13 5 7 1015.8 1015.8 1.0
04/05:30am 12.6 11.6 10.9 89 0.9 WNW 7 11 4 6 1015.5 1015.5 1.0
04/05:00am 12.7 11.8 10.8 88 1.0 NW 6 9 3 5 1015.3 1015.3 1.0
04/04:30am 12.6 11.1 10.7 88 1.0 NNW 9 11 5 6 1014.9 1014.9 1.0
04/04:00am 12.5 11.1 10.8 89 0.9 NW 9 11 5 6 1014.8 1014.8 1.0
04/03:30am 11.8 12.1 11.0 95 0.4 CALM 0 0 0 0 1014.6 1014.6 1.0
04/03:00am 12.1 11.2 10.8 92 0.7 NW 6 7 3 4 1014.5 1014.5 1.0
04/02:30am 12.8 12.0 10.9 88 1.0 NW 6 7 3 4 1014.4 1014.4 1.0
04/02:00am 12.9 12.4 10.8 87 1.1 WNW 4 9 2 5 1014.4 1014.4 1.0
04/01:30am 12.9 12.0 10.8 87 1.1 WSW 6 9 3 5 1014.3 1014.3 1.0
04/01:00am 13.1 11.6 10.6 85 1.3 SW 9 13 5 7 1014.2 1014.2 1.0
04/12:30am 13.3 11.9 10.8 85 1.3 SW 9 15 5 8 1014.1 1014.1 1.0
04/12:00am 13.5 12.6 11.2 86 1.2 W 7 9 4 5 1014.1 1014.1 1.0
 
Date/Time
CST
Temp
°C
App
Temp
°C
Dew
Point
Rel
Hum
%
Delta-T
°C
Wind Press
QNH
hPa
Press
MSL
hPa
Rain
since 9 am
mm
Dir
 
Spd
km/h
Gust
km/h
Spd
kts
Gust
kts
03/11:30pm 13.4 12.7 11.9 91 0.8 W 7 9 4 5 1014.0 1014.0 1.0
03/11:00pm 12.8 12.3 11.9 94 0.5 NW 6 7 3 4 1013.8 1013.8 1.0
03/10:30pm 13.3 13.0 12.6 95 0.4 NW 6 7 3 4 1013.7 1013.7 1.0
03/10:00pm 13.5 13.0 12.6 94 0.5 WNW 7 9 4 5 1013.6 1013.6 1.0
03/09:30pm 13.0 12.4 12.3 95 0.4 WNW 7 9 4 5 1013.4 1013.4 1.0
03/09:00pm 13.2 13.9 12.1 93 0.6 CALM 0 6 0 3 1013.4 1013.4 1.0
03/08:30pm 14.3 13.8 12.8 91 0.8 W 7 13 4 7 1013.1 1013.1 1.0
03/08:00pm 14.3 13.5 13.0 92 0.7 SSW 9 13 5 7 1012.6 1012.7 1.0
03/07:30pm 14.9 12.8 12.5 85 1.3 SSW 15 20 8 11 1012.2 1012.2 1.0
03/07:00pm 16.1 13.8 12.9 81 1.8 SW 17 24 9 13 1011.7 1011.7 1.0
03/06:30pm 17.0 14.3 11.7 71 2.9 W 17 28 9 15 1010.8 1010.8 1.0
03/06:00pm 16.7 14.8 13.1 79 2.0 W 15 20 8 11 1010.2 1010.2 1.0
03/05:30pm 16.7 13.6 13.5 81 1.8 W 22 32 12 17 1009.4 1009.4 1.0
03/05:00pm 16.9 14.7 14.5 86 1.4 W 19 28 10 15 1008.9 1008.9 1.0

Other Formats:

Comma delimited format used in spreadsheet applications
http://www.bom.gov.au/fwo/IDS60801/IDS60801.94682.axf

JavaScript Object Notation format (JSON) in row-major order
http://www.bom.gov.au/fwo/IDS60801/IDS60801.94682.json